createdAt,value
2023-03-25T00:00:05.350Z,22.39
2023-03-25T00:01:05.325Z,22.39
2023-03-25T00:02:05.373Z,22.39
2023-03-25T00:03:05.362Z,22.39
2023-03-25T00:04:05.336Z,22.39
2023-03-25T00:05:05.341Z,22.38
2023-03-25T00:06:05.333Z,22.38
2023-03-25T00:07:05.321Z,22.38
2023-03-25T00:08:05.319Z,22.38
2023-03-25T00:09:05.333Z,22.37
2023-03-25T00:10:05.384Z,22.37
2023-03-25T00:11:04.336Z,22.38
2023-03-25T00:12:04.328Z,22.37
2023-03-25T00:13:05.364Z,22.37
2023-03-25T00:14:05.340Z,22.37
2023-03-25T00:15:05.376Z,22.37
2023-03-25T00:16:05.350Z,22.36
2023-03-25T00:17:05.355Z,22.37
2023-03-25T00:18:05.384Z,22.36
2023-03-25T00:19:05.345Z,22.36
2023-03-25T00:20:05.374Z,22.36
2023-03-25T00:21:05.347Z,22.36
2023-03-25T00:22:05.344Z,22.36
2023-03-25T00:23:05.357Z,22.36
2023-03-25T00:24:04.364Z,22.35
2023-03-25T00:25:05.372Z,22.36
2023-03-25T00:26:05.359Z,22.36
2023-03-25T00:27:05.361Z,22.35
2023-03-25T00:28:05.370Z,22.35
2023-03-25T00:29:05.362Z,22.35
2023-03-25T00:30:05.395Z,22.35
2023-03-25T00:31:05.451Z,22.35
2023-03-25T00:32:05.396Z,22.35
2023-03-25T00:33:05.425Z,22.35
2023-03-25T00:34:04.404Z,22.35
2023-03-25T00:35:05.419Z,22.35
2023-03-25T00:36:05.457Z,22.34
2023-03-25T00:37:04.426Z,22.34
2023-03-25T00:38:05.444Z,22.33
2023-03-25T00:39:05.490Z,22.33
2023-03-25T00:40:05.458Z,22.34
2023-03-25T00:41:05.434Z,22.33
2023-03-25T00:42:05.452Z,22.34
2023-03-25T00:43:05.450Z,22.33
2023-03-25T00:44:05.448Z,22.33
2023-03-25T00:45:05.514Z,22.33
2023-03-25T00:46:05.472Z,22.32
2023-03-25T00:47:05.499Z,22.32
2023-03-25T00:48:06.964Z,22.33
2023-03-25T00:49:04.624Z,22.32
2023-03-25T00:50:04.617Z,22.32
2023-03-25T00:51:04.627Z,22.31
2023-03-25T00:52:05.636Z,22.32
2023-03-25T00:53:05.679Z,22.31
2023-03-25T00:54:04.650Z,22.32
2023-03-25T00:55:05.650Z,22.31
2023-03-25T00:56:05.665Z,22.31
2023-03-25T00:57:05.725Z,22.31
2023-03-25T00:58:05.687Z,22.31
2023-03-25T00:59:05.702Z,22.30
2023-03-25T01:00:05.705Z,22.31
2023-03-25T01:01:05.776Z,22.31
2023-03-25T01:02:05.715Z,22.30
2023-03-25T01:03:05.836Z,22.30
2023-03-25T01:04:05.725Z,22.30
2023-03-25T01:05:05.751Z,22.30
2023-03-25T01:06:05.759Z,22.30
2023-03-25T01:07:05.791Z,22.30
2023-03-25T01:08:05.780Z,22.29
2023-03-25T01:09:04.805Z,22.30
2023-03-25T01:10:05.823Z,22.29
2023-03-25T01:11:05.845Z,22.30
2023-03-25T01:12:05.849Z,22.28
2023-03-25T01:13:04.842Z,22.28
2023-03-25T01:14:04.859Z,22.28
2023-03-25T01:15:05.876Z,22.29
2023-03-25T01:16:05.922Z,22.28
2023-03-25T01:17:05.903Z,22.28
2023-03-25T01:18:05.943Z,22.28
2023-03-25T01:19:04.949Z,22.27
2023-03-25T01:20:05.929Z,22.27
2023-03-25T01:21:05.942Z,22.27
2023-03-25T01:22:05.964Z,22.27
2023-03-25T01:23:05.954Z,22.27
2023-03-25T01:24:05.970Z,22.27
2023-03-25T01:25:05.969Z,22.26
2023-03-25T01:26:04.993Z,22.26
2023-03-25T01:27:05.990Z,22.26
2023-03-25T01:28:05.999Z,22.25
2023-03-25T01:29:06.038Z,22.25
2023-03-25T01:30:05.039Z,22.25
2023-03-25T01:31:06.069Z,22.25
2023-03-25T01:32:06.067Z,22.25
2023-03-25T01:33:06.114Z,22.25
2023-03-25T01:34:05.091Z,22.25
2023-03-25T01:35:05.195Z,22.25
2023-03-25T01:36:06.178Z,22.25
2023-03-25T01:37:06.140Z,22.24
2023-03-25T01:38:06.152Z,22.24
2023-03-25T01:39:06.168Z,22.24
2023-03-25T01:40:05.201Z,22.24
2023-03-25T01:41:06.221Z,22.23
2023-03-25T01:42:06.195Z,22.24
2023-03-25T01:43:06.220Z,22.23
2023-03-25T01:44:06.232Z,22.23
2023-03-25T01:45:06.241Z,22.23
2023-03-25T01:46:06.324Z,22.23
2023-03-25T01:47:06.308Z,22.22
2023-03-25T01:48:06.283Z,22.22
2023-03-25T01:49:06.296Z,22.22
2023-03-25T01:50:06.307Z,22.22
2023-03-25T01:51:06.425Z,22.21
2023-03-25T01:52:06.346Z,22.21
2023-03-25T01:53:05.368Z,22.22
2023-03-25T01:54:05.357Z,22.22
2023-03-25T01:55:06.375Z,22.21
2023-03-25T01:56:06.403Z,22.21
2023-03-25T01:57:06.468Z,22.21
2023-03-25T01:58:06.429Z,22.21
2023-03-25T01:59:05.448Z,22.21
2023-03-25T02:00:06.469Z,22.20
2023-03-25T02:01:06.520Z,22.20
2023-03-25T02:02:05.484Z,22.19
2023-03-25T02:03:06.506Z,22.20
2023-03-25T02:04:06.509Z,22.20
2023-03-25T02:05:06.534Z,22.19
2023-03-25T02:06:06.560Z,22.19
2023-03-25T02:07:06.633Z,22.19
2023-03-25T02:08:06.613Z,22.19
2023-03-25T02:09:06.633Z,22.19
2023-03-25T02:10:06.665Z,22.19
2023-03-25T02:11:06.658Z,22.18
2023-03-25T02:12:06.681Z,22.18
2023-03-25T02:13:05.685Z,22.18
2023-03-25T02:14:06.716Z,22.18
2023-03-25T02:15:06.726Z,22.18
2023-03-25T02:16:06.788Z,22.17
2023-03-25T02:17:05.759Z,22.18
2023-03-25T02:18:06.791Z,22.18
2023-03-25T02:19:06.811Z,22.17
2023-03-25T02:20:06.815Z,22.17
2023-03-25T02:21:06.882Z,22.17
2023-03-25T02:22:06.850Z,22.17
2023-03-25T02:23:06.888Z,22.16
2023-03-25T02:24:05.882Z,22.16
2023-03-25T02:25:05.911Z,22.16
2023-03-25T02:26:06.942Z,22.16
2023-03-25T02:27:06.956Z,22.16
2023-03-25T02:28:06.972Z,22.15
2023-03-25T02:29:06.997Z,22.15
2023-03-25T02:30:07.018Z,22.16
2023-03-25T02:31:07.037Z,22.16
2023-03-25T02:32:07.080Z,22.15
2023-03-25T02:33:06.107Z,22.15
2023-03-25T02:34:07.100Z,22.14
2023-03-25T02:35:07.117Z,22.14
2023-03-25T02:36:06.165Z,22.14
2023-03-25T02:37:07.169Z,22.14
2023-03-25T02:38:07.210Z,22.14
2023-03-25T02:39:07.233Z,22.14
2023-03-25T02:40:07.217Z,22.12
2023-03-25T02:41:07.270Z,22.13
2023-03-25T02:42:06.258Z,22.14
2023-03-25T02:43:07.288Z,22.13
2023-03-25T02:44:06.311Z,22.12
2023-03-25T02:45:07.317Z,22.12
2023-03-25T02:46:07.401Z,22.12
2023-03-25T02:47:07.369Z,22.12
2023-03-25T02:48:07.391Z,22.11
2023-03-25T02:49:07.414Z,22.12
2023-03-25T02:50:07.449Z,22.11
2023-03-25T02:51:06.461Z,22.11
2023-03-25T02:52:07.487Z,22.11
2023-03-25T02:53:07.498Z,22.11
2023-03-25T02:54:07.542Z,22.11
2023-03-25T02:55:06.580Z,22.11
2023-03-25T02:56:07.573Z,22.11
2023-03-25T02:57:07.650Z,22.11
2023-03-25T02:58:06.630Z,22.10
2023-03-25T02:59:07.630Z,22.10
2023-03-25T03:00:06.656Z,22.10
2023-03-25T03:01:06.745Z,22.09
2023-03-25T03:02:07.749Z,22.10
2023-03-25T03:03:08.066Z,22.09
2023-03-25T03:04:07.781Z,22.09
2023-03-25T03:05:06.786Z,22.08
2023-03-25T03:06:07.808Z,22.08
2023-03-25T03:07:07.858Z,22.08
2023-03-25T03:08:07.886Z,22.08
2023-03-25T03:09:07.893Z,22.08
2023-03-25T03:10:07.915Z,22.08
2023-03-25T03:11:06.973Z,22.08
2023-03-25T03:12:06.976Z,22.08
2023-03-25T03:13:07.997Z,22.08
2023-03-25T03:14:08.038Z,22.08
2023-03-25T03:15:08.057Z,22.08
2023-03-25T03:16:08.075Z,22.08
2023-03-25T03:17:08.305Z,22.07
2023-03-25T03:18:08.291Z,22.07
2023-03-25T03:19:07.177Z,22.07
2023-03-25T03:20:08.205Z,22.07
2023-03-25T03:21:08.242Z,22.07
2023-03-25T03:22:08.262Z,22.06
2023-03-25T03:23:07.302Z,22.06
2023-03-25T03:24:08.330Z,22.06
2023-03-25T03:25:08.367Z,22.06
2023-03-25T03:26:08.384Z,22.06
2023-03-25T03:27:08.448Z,22.06
2023-03-25T03:28:08.454Z,22.06
2023-03-25T03:29:08.478Z,22.05
2023-03-25T03:30:08.515Z,22.05
2023-03-25T03:31:08.583Z,22.05
2023-03-25T03:32:07.575Z,22.06
2023-03-25T03:33:08.624Z,22.05
2023-03-25T03:34:07.610Z,22.05
2023-03-25T03:35:08.639Z,22.04
2023-03-25T03:36:07.723Z,22.04
2023-03-25T03:37:08.698Z,22.04
2023-03-25T03:38:08.741Z,22.04
2023-03-25T03:39:08.776Z,22.03
2023-03-25T03:40:08.808Z,22.04
2023-03-25T03:41:07.838Z,22.03
2023-03-25T03:42:08.868Z,22.04
2023-03-25T03:43:08.915Z,22.03
2023-03-25T03:44:08.924Z,22.03
2023-03-25T03:45:08.969Z,22.03
2023-03-25T03:46:09.009Z,22.03
2023-03-25T03:47:09.032Z,22.03
2023-03-25T03:48:09.099Z,22.02
2023-03-25T03:49:09.127Z,22.02
2023-03-25T03:50:09.171Z,22.03
2023-03-25T03:51:09.166Z,22.02
2023-03-25T03:52:09.209Z,22.02
2023-03-25T03:53:09.210Z,22.02
2023-03-25T03:54:09.245Z,22.02
2023-03-25T03:55:09.255Z,22.02
2023-03-25T03:56:09.317Z,22.02
2023-03-25T03:57:09.391Z,22.01
2023-03-25T03:58:09.355Z,22.01
2023-03-25T03:59:09.413Z,22.01
2023-03-25T04:00:09.444Z,22.01
2023-03-25T04:01:09.459Z,22.00
2023-03-25T04:02:09.511Z,22.00
2023-03-25T04:03:09.571Z,22.00
2023-03-25T04:04:08.621Z,22.00
2023-03-25T04:05:08.581Z,22.00
2023-03-25T04:06:09.598Z,21.99
2023-03-25T04:07:09.646Z,22.00
2023-03-25T04:08:09.690Z,21.99
2023-03-25T04:09:09.689Z,22.00
2023-03-25T04:10:09.732Z,21.99
2023-03-25T04:11:09.768Z,21.99
2023-03-25T04:12:09.823Z,21.99
2023-03-25T04:13:09.834Z,21.99
2023-03-25T04:14:09.854Z,21.99
2023-03-25T04:15:09.913Z,21.99
2023-03-25T04:16:09.965Z,21.99
2023-03-25T04:17:09.971Z,21.98
2023-03-25T04:18:09.986Z,21.99
2023-03-25T04:19:10.014Z,21.99
2023-03-25T04:20:10.063Z,21.98
2023-03-25T04:21:10.081Z,21.98
2023-03-25T04:22:10.131Z,21.98
2023-03-25T04:23:09.143Z,21.98
2023-03-25T04:24:10.179Z,21.98
2023-03-25T04:25:10.214Z,21.97
2023-03-25T04:26:10.260Z,21.96
2023-03-25T04:27:10.288Z,21.98
2023-03-25T04:28:10.308Z,21.96
2023-03-25T04:29:10.333Z,21.97
2023-03-25T04:30:10.373Z,21.96
2023-03-25T04:31:10.471Z,21.96
2023-03-25T04:32:10.461Z,21.96
2023-03-25T04:33:10.488Z,21.96
2023-03-25T04:34:10.484Z,21.96
2023-03-25T04:35:10.525Z,21.95
2023-03-25T04:36:10.596Z,21.95
2023-03-25T04:37:10.684Z,21.95
2023-03-25T04:38:10.626Z,21.95
2023-03-25T04:39:09.654Z,21.94
2023-03-25T04:40:10.680Z,21.95
2023-03-25T04:41:10.771Z,21.95
2023-03-25T04:42:10.778Z,21.94
2023-03-25T04:43:10.793Z,21.94
2023-03-25T04:44:09.834Z,21.94
2023-03-25T04:45:10.854Z,21.94
2023-03-25T04:46:10.937Z,21.93
2023-03-25T04:47:10.975Z,21.94
2023-03-25T04:48:09.970Z,21.94
2023-03-25T04:49:11.018Z,21.93
2023-03-25T04:50:10.066Z,21.93
2023-03-25T04:51:11.096Z,21.93
2023-03-25T04:52:11.260Z,21.92
2023-03-25T04:53:11.172Z,21.93
2023-03-25T04:54:11.219Z,21.93
2023-03-25T04:55:11.257Z,21.93
2023-03-25T04:56:11.294Z,21.92
2023-03-25T04:57:11.419Z,21.92
2023-03-25T04:58:11.363Z,21.92
2023-03-25T04:59:11.413Z,21.92
2023-03-25T05:00:10.455Z,21.92
2023-03-25T05:01:11.541Z,21.91
2023-03-25T05:02:11.574Z,21.91
2023-03-25T05:03:11.581Z,21.91
2023-03-25T05:04:11.626Z,21.91
2023-03-25T05:05:11.636Z,21.91
2023-03-25T05:06:11.678Z,21.91
2023-03-25T05:07:10.736Z,21.91
2023-03-25T05:08:10.761Z,21.91
2023-03-25T05:09:11.793Z,21.90
2023-03-25T05:10:11.834Z,21.90
2023-03-25T05:11:11.858Z,21.91
2023-03-25T05:12:11.901Z,21.91
2023-03-25T05:13:11.945Z,21.90
2023-03-25T05:14:11.974Z,21.90
2023-03-25T05:15:12.019Z,21.89
2023-03-25T05:16:11.109Z,21.90
2023-03-25T05:17:11.087Z,21.89
2023-03-25T05:18:12.125Z,21.90
2023-03-25T05:19:11.222Z,21.89
2023-03-25T05:20:11.218Z,21.90
2023-03-25T05:21:12.255Z,21.88
2023-03-25T05:22:12.294Z,21.89
2023-03-25T05:23:12.419Z,21.88
2023-03-25T05:24:12.382Z,21.87
2023-03-25T05:25:11.426Z,21.88
2023-03-25T05:26:12.473Z,21.88
2023-03-25T05:27:12.881Z,21.87
2023-03-25T05:28:12.563Z,21.88
2023-03-25T05:29:12.594Z,21.87
2023-03-25T05:30:12.634Z,21.87
2023-03-25T05:31:11.681Z,21.87
2023-03-25T05:32:11.713Z,21.88
2023-03-25T05:33:12.762Z,21.87
2023-03-25T05:34:12.808Z,21.86
2023-03-25T05:35:12.893Z,21.87
2023-03-25T05:36:12.896Z,21.87
2023-03-25T05:37:12.933Z,21.86
2023-03-25T05:38:11.991Z,21.86
2023-03-25T05:39:13.046Z,21.87
2023-03-25T05:40:15.248Z,21.86
2023-03-25T05:41:13.068Z,21.86
2023-03-25T05:42:13.069Z,21.86
2023-03-25T05:43:13.042Z,21.85
2023-03-25T05:44:13.045Z,21.85
2023-03-25T05:45:13.051Z,21.85
2023-03-25T05:46:13.085Z,21.86
2023-03-25T05:47:13.026Z,21.86
2023-03-25T05:48:13.018Z,21.86
2023-03-25T05:49:13.005Z,21.86
2023-03-25T05:50:12.028Z,21.86
2023-03-25T05:51:13.009Z,21.85
2023-03-25T05:52:12.984Z,21.86
2023-03-25T05:53:12.980Z,21.85
2023-03-25T05:54:12.976Z,21.86
2023-03-25T05:55:12.964Z,21.85
2023-03-25T05:56:12.970Z,21.85
2023-03-25T05:57:12.079Z,21.85
2023-03-25T05:58:12.959Z,21.85
2023-03-25T05:59:12.927Z,21.85
2023-03-25T06:00:12.961Z,21.84
2023-03-25T06:01:25.521Z,21.85
2023-03-25T06:02:12.978Z,21.84
2023-03-25T06:03:13.070Z,21.84
2023-03-25T06:04:13.050Z,21.83
2023-03-25T06:05:11.907Z,21.83
2023-03-25T06:06:12.875Z,21.84
2023-03-25T06:07:12.905Z,21.84
2023-03-25T06:08:12.880Z,21.84
2023-03-25T06:09:12.861Z,21.83
2023-03-25T06:10:12.837Z,21.83
2023-03-25T06:11:12.841Z,21.84
2023-03-25T06:12:12.841Z,21.83
2023-03-25T06:13:11.841Z,21.83
2023-03-25T06:14:11.837Z,21.83
2023-03-25T06:15:12.820Z,21.83
2023-03-25T06:16:12.839Z,21.83
2023-03-25T06:17:12.804Z,21.83
2023-03-25T06:18:12.884Z,21.83
2023-03-25T06:19:12.809Z,21.83
2023-03-25T06:20:11.794Z,21.83
2023-03-25T06:21:12.774Z,21.83
2023-03-25T06:22:12.765Z,21.83
2023-03-25T06:23:12.838Z,21.82
2023-03-25T06:24:12.760Z,21.82
2023-03-25T06:25:12.748Z,21.83
2023-03-25T06:26:12.756Z,21.83
2023-03-25T06:27:12.743Z,21.83
2023-03-25T06:28:12.766Z,21.82
2023-03-25T06:29:12.732Z,21.82
2023-03-25T06:30:12.755Z,21.82
2023-03-25T06:31:12.826Z,21.81
2023-03-25T06:32:12.837Z,21.81
2023-03-25T06:33:11.878Z,21.82
2023-03-25T06:34:12.942Z,21.81
2023-03-25T06:35:11.991Z,21.81
2023-03-25T06:36:13.061Z,21.80
2023-03-25T06:37:13.091Z,21.81
2023-03-25T06:38:13.130Z,21.81
2023-03-25T06:39:13.210Z,21.80
2023-03-25T06:40:13.228Z,21.81
2023-03-25T06:41:13.269Z,21.81
2023-03-25T06:42:13.315Z,21.80
2023-03-25T06:43:13.377Z,21.80
2023-03-25T06:44:13.439Z,21.80
2023-03-25T06:45:12.481Z,21.80
2023-03-25T06:46:13.541Z,21.81
2023-03-25T06:47:13.590Z,21.80
2023-03-25T06:48:13.658Z,21.79
2023-03-25T06:49:13.696Z,21.80
2023-03-25T06:50:13.760Z,21.80
2023-03-25T06:51:13.798Z,21.80
2023-03-25T06:52:12.848Z,21.80
2023-03-25T06:53:12.931Z,21.80
2023-03-25T06:54:13.956Z,21.79
2023-03-25T06:55:14.029Z,21.79
2023-03-25T06:56:14.059Z,21.79
2023-03-25T06:57:14.181Z,21.79
2023-03-25T06:58:14.153Z,21.79
2023-03-25T06:59:14.233Z,21.79
2023-03-25T07:00:14.262Z,21.79
2023-03-25T07:01:14.313Z,21.79
2023-03-25T07:02:13.363Z,21.79
2023-03-25T07:03:14.420Z,21.78
2023-03-25T07:04:14.483Z,21.79
2023-03-25T07:05:14.562Z,21.79
2023-03-25T07:06:14.556Z,21.79
2023-03-25T07:07:14.599Z,21.78
2023-03-25T07:08:14.718Z,21.78
2023-03-25T07:09:14.709Z,21.78
2023-03-25T07:10:14.758Z,21.79
2023-03-25T07:11:14.817Z,21.78
2023-03-25T07:12:13.850Z,21.78
2023-03-25T07:13:14.909Z,21.78
2023-03-25T07:14:14.964Z,21.77
2023-03-25T07:15:15.012Z,21.78
2023-03-25T07:16:14.586Z,21.77
2023-03-25T07:17:15.108Z,21.78
2023-03-25T07:18:15.160Z,21.78
2023-03-25T07:19:14.240Z,21.77
2023-03-25T07:20:17.114Z,21.77
2023-03-25T07:21:14.277Z,21.76
2023-03-25T07:22:14.264Z,21.77
2023-03-25T07:23:15.246Z,21.76
2023-03-25T07:24:15.249Z,21.77
2023-03-25T07:25:15.249Z,21.76
2023-03-25T07:26:15.229Z,21.77
2023-03-25T07:27:15.268Z,21.76
2023-03-25T07:28:15.219Z,21.76
2023-03-25T07:29:15.223Z,21.76
2023-03-25T07:30:15.220Z,21.76
2023-03-25T07:31:15.218Z,21.76
2023-03-25T07:32:14.206Z,21.76
2023-03-25T07:33:15.190Z,21.76
2023-03-25T07:34:15.192Z,21.76
2023-03-25T07:35:14.183Z,21.75
2023-03-25T07:36:15.163Z,21.75
2023-03-25T07:37:15.172Z,21.76
2023-03-25T07:38:15.153Z,21.75
2023-03-25T07:39:15.153Z,21.75
2023-03-25T07:40:14.172Z,21.75
2023-03-25T07:41:15.127Z,21.75
2023-03-25T07:42:14.128Z,21.75
2023-03-25T07:43:15.142Z,21.75
2023-03-25T07:44:15.228Z,21.74
2023-03-25T07:45:15.130Z,21.74
2023-03-25T07:46:15.130Z,21.74
2023-03-25T07:47:15.101Z,21.74
2023-03-25T07:48:15.087Z,21.75
2023-03-25T07:49:15.072Z,21.74
2023-03-25T07:50:15.108Z,21.75
2023-03-25T07:51:15.160Z,21.74
2023-03-25T07:52:15.202Z,21.74
2023-03-25T07:53:15.257Z,21.75
2023-03-25T07:54:15.311Z,21.75
2023-03-25T07:55:15.391Z,21.75
2023-03-25T07:56:15.395Z,21.75
2023-03-25T07:57:15.460Z,21.74
2023-03-25T07:58:15.515Z,21.75
2023-03-25T07:59:15.573Z,21.74
2023-03-25T08:00:15.638Z,21.74
2023-03-25T08:01:15.649Z,21.74
2023-03-25T08:02:15.713Z,21.74
2023-03-25T08:03:15.843Z,21.75
2023-03-25T08:04:15.801Z,21.74
2023-03-25T08:05:15.869Z,21.75
2023-03-25T08:06:15.909Z,21.75
2023-03-25T08:07:15.950Z,21.75
2023-03-25T08:08:16.016Z,21.75
2023-03-25T08:09:16.046Z,21.74
2023-03-25T08:10:16.109Z,21.75
2023-03-25T08:11:16.142Z,21.75
2023-03-25T08:12:16.187Z,21.75
2023-03-25T08:13:15.241Z,21.75
2023-03-25T08:14:16.285Z,21.75
2023-03-25T08:15:16.381Z,21.74
2023-03-25T08:16:16.388Z,21.74
2023-03-25T08:17:16.432Z,21.74
2023-03-25T08:18:16.467Z,21.75
2023-03-25T08:19:16.521Z,21.74
2023-03-25T08:20:16.582Z,21.74
2023-03-25T08:21:16.632Z,21.74
2023-03-25T08:22:15.682Z,21.75
2023-03-25T08:23:18.467Z,21.74
2023-03-25T08:24:15.736Z,21.75
2023-03-25T08:25:16.734Z,21.76
2023-03-25T08:26:16.709Z,21.75
2023-03-25T08:27:16.933Z,21.76
2023-03-25T08:28:15.691Z,21.77
2023-03-25T08:29:16.681Z,21.78
2023-03-25T08:30:16.687Z,21.77
2023-03-25T08:31:16.720Z,21.77
2023-03-25T08:32:16.724Z,21.77
2023-03-25T08:33:16.649Z,21.77
2023-03-25T08:34:16.643Z,21.78
2023-03-25T08:35:15.638Z,21.78
2023-03-25T08:36:16.620Z,21.79
2023-03-25T08:37:15.610Z,21.79
2023-03-25T08:38:16.602Z,21.79
2023-03-25T08:39:16.604Z,21.79
2023-03-25T08:40:16.599Z,21.79
2023-03-25T08:41:16.604Z,21.80
2023-03-25T08:42:15.679Z,21.80
2023-03-25T08:43:16.574Z,21.79
2023-03-25T08:44:16.563Z,21.81
2023-03-25T08:45:16.567Z,21.80
2023-03-25T08:46:16.611Z,21.81
2023-03-25T08:47:15.578Z,21.81
2023-03-25T08:48:16.540Z,21.82
2023-03-25T08:49:16.546Z,21.81
2023-03-25T08:50:16.515Z,21.82
2023-03-25T08:51:15.520Z,21.82
2023-03-25T08:52:16.551Z,21.83
2023-03-25T08:53:16.592Z,21.83
2023-03-25T08:54:16.637Z,21.84
2023-03-25T08:55:16.680Z,21.85
2023-03-25T08:56:16.720Z,21.85
2023-03-25T08:57:16.730Z,21.85
2023-03-25T08:58:16.773Z,21.86
2023-03-25T08:59:16.819Z,21.86
2023-03-25T09:00:16.842Z,21.87
2023-03-25T09:01:16.912Z,21.88
2023-03-25T09:02:16.923Z,21.87
2023-03-25T09:03:16.997Z,21.88
2023-03-25T09:04:16.989Z,21.88
2023-03-25T09:05:17.082Z,21.87
2023-03-25T09:06:17.061Z,21.88
2023-03-25T09:07:17.088Z,21.89
2023-03-25T09:08:17.134Z,21.89
2023-03-25T09:09:17.153Z,21.89
2023-03-25T09:10:16.206Z,21.90
2023-03-25T09:11:19.827Z,21.90
2023-03-25T09:12:17.233Z,21.91
2023-03-25T09:13:17.204Z,21.91
2023-03-25T09:14:16.199Z,21.92
2023-03-25T09:15:17.195Z,21.92
2023-03-25T09:16:17.228Z,21.92
2023-03-25T09:17:16.170Z,21.93
2023-03-25T09:18:17.171Z,21.94
2023-03-25T09:19:17.203Z,21.94
2023-03-25T09:20:17.151Z,21.94
2023-03-25T09:21:17.150Z,21.94
2023-03-25T09:22:17.137Z,21.95
2023-03-25T09:23:17.129Z,21.95
2023-03-25T09:24:16.116Z,21.96
2023-03-25T09:25:16.115Z,21.95
2023-03-25T09:26:16.114Z,21.96
2023-03-25T09:27:16.104Z,21.97
2023-03-25T09:28:16.088Z,21.98
2023-03-25T09:29:17.081Z,21.97
2023-03-25T09:30:17.080Z,21.99
2023-03-25T09:31:17.104Z,21.99
2023-03-25T09:32:16.064Z,22.00
2023-03-25T09:33:17.065Z,22.01
2023-03-25T09:34:17.050Z,22.00
2023-03-25T09:35:16.128Z,22.01
2023-03-25T09:36:17.113Z,22.00
2023-03-25T09:37:17.118Z,22.00
2023-03-25T09:38:17.133Z,22.01
2023-03-25T09:39:17.156Z,22.01
2023-03-25T09:40:17.212Z,22.02
2023-03-25T09:41:16.205Z,22.02
2023-03-25T09:42:17.228Z,22.02
2023-03-25T09:43:17.242Z,22.02
2023-03-25T09:44:17.245Z,22.03
2023-03-25T09:45:17.319Z,22.03
2023-03-25T09:46:17.301Z,22.03
2023-03-25T09:47:17.292Z,22.04
2023-03-25T09:48:17.326Z,22.04
2023-03-25T09:49:17.323Z,22.05
2023-03-25T09:50:16.368Z,22.05
2023-03-25T09:51:17.507Z,22.06
2023-03-25T09:52:17.403Z,22.06
2023-03-25T09:53:17.409Z,22.06
2023-03-25T09:54:17.419Z,22.06
2023-03-25T09:55:17.449Z,22.07
2023-03-25T09:56:16.457Z,22.07
2023-03-25T09:57:17.488Z,22.08
2023-03-25T09:58:17.473Z,22.08
2023-03-25T09:59:16.530Z,22.08
2023-03-25T10:00:17.501Z,22.09
2023-03-25T10:01:17.540Z,22.09
2023-03-25T10:02:16.581Z,22.09
2023-03-25T10:03:17.642Z,22.09
2023-03-25T10:04:16.550Z,22.10
2023-03-25T10:05:17.612Z,22.10
2023-03-25T10:06:17.606Z,22.11
2023-03-25T10:07:17.639Z,22.11
2023-03-25T10:08:16.611Z,22.11
2023-03-25T10:09:17.628Z,22.12
2023-03-25T10:10:17.662Z,22.12
2023-03-25T10:11:17.662Z,22.14
2023-03-25T10:12:16.663Z,22.14
2023-03-25T10:13:19.381Z,22.14
2023-03-25T10:14:17.655Z,22.14
2023-03-25T10:15:16.644Z,22.14
2023-03-25T10:16:17.681Z,22.15
2023-03-25T10:17:17.648Z,22.15
2023-03-25T10:18:17.631Z,22.16
2023-03-25T10:19:17.620Z,22.16
2023-03-25T10:20:17.642Z,22.17
2023-03-25T10:21:16.627Z,22.17
2023-03-25T10:22:17.600Z,22.17
2023-03-25T10:23:17.661Z,22.18
2023-03-25T10:24:17.596Z,22.18
2023-03-25T10:25:17.593Z,22.17
2023-03-25T10:26:17.591Z,22.17
2023-03-25T10:27:16.609Z,22.17
2023-03-25T10:28:16.556Z,22.17
2023-03-25T10:29:17.557Z,22.18
2023-03-25T10:30:17.547Z,22.18
2023-03-25T10:31:17.623Z,22.18
2023-03-25T10:32:17.565Z,22.18
2023-03-25T10:33:17.516Z,22.18
2023-03-25T10:34:17.516Z,22.18
2023-03-25T10:35:16.515Z,22.19
2023-03-25T10:36:17.503Z,22.19
2023-03-25T10:37:17.504Z,22.19
2023-03-25T10:38:17.493Z,22.20
2023-03-25T10:39:17.507Z,22.19
2023-03-25T10:40:17.893Z,22.20
2023-03-25T10:41:16.609Z,22.20
2023-03-25T10:42:16.613Z,22.20
2023-03-25T10:43:17.644Z,22.20
2023-03-25T10:44:17.630Z,22.20
2023-03-25T10:45:17.682Z,22.21
2023-03-25T10:46:17.694Z,22.21
2023-03-25T10:47:17.639Z,22.21
2023-03-25T10:48:17.634Z,22.22
2023-03-25T10:49:17.646Z,22.22
2023-03-25T10:50:17.649Z,22.22
2023-03-25T10:51:17.655Z,22.22
2023-03-25T10:52:17.661Z,22.22
2023-03-25T10:53:17.675Z,22.23
2023-03-25T10:54:17.642Z,22.22
2023-03-25T10:55:17.664Z,22.23
2023-03-25T10:56:17.645Z,22.23
2023-03-25T10:57:16.644Z,22.22
2023-03-25T10:58:17.646Z,22.23
2023-03-25T10:59:18.789Z,22.22
2023-03-25T11:00:17.660Z,22.23
2023-03-25T11:01:17.702Z,22.23
2023-03-25T11:02:17.704Z,22.23
2023-03-25T11:03:17.719Z,22.23
2023-03-25T11:04:16.659Z,22.23
2023-03-25T11:05:17.784Z,22.23
2023-03-25T11:06:17.643Z,22.24
2023-03-25T11:07:17.657Z,22.24
2023-03-25T11:08:24.450Z,22.24
2023-03-25T11:09:17.629Z,22.24
2023-03-25T11:10:16.650Z,22.23
2023-03-25T11:11:16.643Z,22.23
2023-03-25T11:12:17.614Z,22.23
2023-03-25T11:13:16.639Z,22.24
2023-03-25T11:14:16.609Z,22.24
2023-03-25T11:15:17.603Z,22.24
2023-03-25T11:16:16.637Z,22.24
2023-03-25T11:17:17.570Z,22.24
2023-03-25T11:18:17.584Z,22.24
2023-03-25T11:19:17.564Z,22.24
2023-03-25T11:20:17.547Z,22.25
2023-03-25T11:21:17.543Z,22.24
2023-03-25T11:22:17.524Z,22.24
2023-03-25T11:23:17.528Z,22.25
2023-03-25T11:24:17.515Z,22.24
2023-03-25T11:25:17.510Z,22.24
2023-03-25T11:26:17.505Z,22.25
2023-03-25T11:27:17.503Z,22.24
2023-03-25T11:28:17.474Z,22.25
2023-03-25T11:29:17.466Z,22.25
2023-03-25T11:30:17.472Z,22.25
2023-03-25T11:31:17.537Z,22.26
2023-03-25T11:32:17.452Z,22.26
2023-03-25T11:33:17.516Z,22.25
2023-03-25T11:34:17.511Z,22.26
2023-03-25T11:35:17.420Z,22.26
2023-03-25T11:36:17.451Z,22.26
2023-03-25T11:37:17.428Z,22.27
2023-03-25T11:38:17.423Z,22.26
2023-03-25T11:39:17.403Z,22.27
2023-03-25T11:40:16.414Z,22.27
2023-03-25T11:41:17.403Z,22.28
2023-03-25T11:42:17.378Z,22.26
2023-03-25T11:43:17.504Z,22.26
2023-03-25T11:44:16.367Z,22.27
2023-03-25T11:45:17.348Z,22.27
2023-03-25T11:46:17.372Z,22.27
2023-03-25T11:47:17.335Z,22.27
2023-03-25T11:48:16.425Z,22.27
2023-03-25T11:49:17.332Z,22.27
2023-03-25T11:50:17.321Z,22.27
2023-03-25T11:51:16.319Z,22.27
2023-03-25T11:52:17.302Z,22.27
2023-03-25T11:53:16.299Z,22.27
2023-03-25T11:54:17.300Z,22.27
2023-03-25T11:55:17.304Z,22.27
2023-03-25T11:56:17.270Z,22.27
2023-03-25T11:57:17.293Z,22.27
2023-03-25T11:58:17.268Z,22.27
2023-03-25T11:59:17.282Z,22.27
2023-03-25T12:00:17.283Z,22.27
2023-03-25T12:01:17.257Z,22.27
2023-03-25T12:02:17.249Z,22.27
2023-03-25T12:03:20.180Z,22.27
2023-03-25T12:04:17.222Z,22.28
2023-03-25T12:05:17.224Z,22.28
2023-03-25T12:06:17.226Z,22.27
2023-03-25T12:07:17.199Z,22.27
2023-03-25T12:08:16.191Z,22.28
2023-03-25T12:09:17.262Z,22.28
2023-03-25T12:10:16.269Z,22.29
2023-03-25T12:11:17.173Z,22.27
2023-03-25T12:12:17.157Z,22.28
2023-03-25T12:13:17.175Z,22.27
2023-03-25T12:14:17.154Z,22.27
2023-03-25T12:15:16.167Z,22.28
2023-03-25T12:16:17.179Z,22.28
2023-03-25T12:17:17.136Z,22.28
2023-03-25T12:18:17.121Z,22.28
2023-03-25T12:19:16.145Z,22.28
2023-03-25T12:20:17.249Z,22.28
2023-03-25T12:21:17.098Z,22.28
2023-03-25T12:22:17.100Z,22.28
2023-03-25T12:23:17.087Z,22.28
2023-03-25T12:24:17.092Z,22.28
2023-03-25T12:25:17.058Z,22.28
2023-03-25T12:26:17.055Z,22.29
2023-03-25T12:27:17.048Z,22.28
2023-03-25T12:28:16.045Z,22.29
2023-03-25T12:29:17.030Z,22.28
2023-03-25T12:30:17.022Z,22.29
2023-03-25T12:31:17.063Z,22.30
2023-03-25T12:32:17.005Z,22.29
2023-03-25T12:33:17.007Z,22.29
2023-03-25T12:34:17.077Z,22.30
2023-03-25T12:35:17.022Z,22.29
2023-03-25T12:36:16.992Z,22.30
2023-03-25T12:37:15.985Z,22.29
2023-03-25T12:38:17.002Z,22.30
2023-03-25T12:39:16.979Z,22.30
2023-03-25T12:40:16.093Z,22.30
2023-03-25T12:41:16.941Z,22.30
2023-03-25T12:42:16.942Z,22.30
2023-03-25T12:43:16.926Z,22.30
2023-03-25T12:44:15.916Z,22.31
2023-03-25T12:45:16.920Z,22.31
2023-03-25T12:46:16.955Z,22.31
2023-03-25T12:47:16.939Z,22.31
2023-03-25T12:48:16.885Z,22.31
2023-03-25T12:49:16.888Z,22.31
2023-03-25T12:50:16.877Z,22.32
2023-03-25T12:51:15.872Z,22.31
2023-03-25T12:52:16.860Z,22.32